Time;durP1;ratioP1;P1;durP2;ratioP2;P2;SDS_P1;SDS_P2;PMS_P1;PMS_P2;Temp;Humidity;BMP_temperature;BMP_pressure;BME280_temperature;BME280_humidity;BME280_pressure;Samples;Min_cycle;Max_cycle;Signal;HPM_P1;HPM_P2
2022/03/05 00:00:00;;;;;;;;;46.50;32.50;;;;;11.37;64.44;101518.09;5011227;28;45602;-81
2022/03/05 00:02:26;;;;;;;;;44.50;35.00;;;;;11.50;63.92;101526.56;5029841;28;45745;-81
2022/03/05 00:04:52;;;;;;;;;37.33;29.67;;;;;11.70;64.01;101563.22;5022603;28;46527;-81
2022/03/05 00:07:19;;;;;;;;;39.67;32.00;;;;;11.81;64.27;101585.09;5022252;28;45563;-81
2022/03/05 00:09:45;;;;;;;;;44.25;34.25;;;;;11.74;64.14;101580.88;5024878;28;45430;-81
2022/03/05 00:12:11;;;;;;;;;42.33;33.00;;;;;11.79;64.34;101584.25;5031899;27;45494;-81
2022/03/05 00:14:36;;;;;;;;;45.25;33.50;;;;;11.44;64.32;101528.56;5031929;28;45470;-80
2022/03/05 00:17:02;;;;;;;;;42.50;35.00;;;;;11.76;64.38;101584.38;5012799;28;45374;-81
2022/03/05 00:19:27;;;;;;;;;40.67;33.67;;;;;11.43;64.43;101519.69;5014958;28;45387;-81
2022/03/05 00:21:54;;;;;;;;;37.00;31.67;;;;;11.61;64.25;101555.53;5016277;28;45530;-81
2022/03/05 00:24:19;;;;;;;;;44.50;36.00;;;;;11.61;64.38;101547.53;5033583;28;45401;-81
2022/03/05 00:26:45;;;;;;;;;44.75;33.00;;;;;11.82;64.40;101572.59;5014517;28;45425;-81
2022/03/05 00:29:11;;;;;;;;;41.00;32.50;;;;;11.81;64.26;101578.88;5014456;28;45430;-81
2022/03/05 00:31:36;;;;;;;;;42.25;33.00;;;;;11.59;64.30;101539.59;5014227;28;45415;-81
2022/03/05 00:34:01;;;;;;;;;42.67;33.67;;;;;11.84;64.54;101576.09;5018053;28;45505;-81
2022/03/05 00:36:27;;;;;;;;;45.25;36.50;;;;;11.69;64.41;101555.28;5033845;28;45434;-81
2022/03/05 00:38:52;;;;;;;;;43.75;33.00;;;;;11.80;64.23;101578.00;5024845;28;45807;-81
2022/03/05 00:41:17;;;;;;;;;43.50;34.75;;;;;11.79;64.68;101573.56;5021962;28;45531;-81
2022/03/05 00:43:43;;;;;;;;;45.00;36.00;;;;;11.79;64.41;101578.06;5013231;28;47589;-81
2022/03/05 00:46:08;;;;;;;;;39.50;31.50;;;;;11.77;64.59;101578.09;5029381;28;45390;-81
2022/03/05 00:48:33;;;;;;;;;44.50;36.00;;;;;11.43;64.51;101525.03;5027512;28;45510;-81
2022/03/05 00:50:59;;;;;;;;;47.00;35.25;;;;;11.76;64.47;101575.50;5036023;28;45385;-81
2022/03/05 00:53:24;;;;;;;;;41.25;35.25;;;;;11.70;64.47;101559.69;5027484;28;45833;-81
2022/03/05 00:55:49;;;;;;;;;44.00;33.75;;;;;11.78;64.77;101576.31;5033370;28;45481;-81
2022/03/05 00:58:15;;;;;;;;;43.75;34.25;;;;;11.49;64.32;101519.44;5022002;28;45908;-81
2022/03/05 01:00:41;;;;;;;;;44.25;34.75;;;;;11.79;64.65;101572.72;5027876;28;45603;-81
2022/03/05 01:03:06;;;;;;;;;47.00;38.00;;;;;11.59;64.80;101536.03;5012015;28;47395;-81
2022/03/05 01:05:32;;;;;;;;;45.25;35.00;;;;;11.67;64.86;101549.13;5020426;28;45507;-81
2022/03/05 01:07:57;;;;;;;;;42.50;33.50;;;;;11.76;64.58;101565.69;5026708;28;45476;-81
2022/03/05 01:10:22;;;;;;;;;47.75;38.00;;;;;11.77;64.78;101570.09;5017910;27;45479;-81
2022/03/05 01:12:48;;;;;;;;;49.25;36.50;;;;;11.75;64.80;101574.63;5030425;28;45481;-81
2022/03/05 01:15:13;;;;;;;;;40.25;32.75;;;;;11.52;64.99;101531.81;5029168;28;45513;-81
2022/03/05 01:17:38;;;;;;;;;41.50;33.75;;;;;11.76;64.83;101575.50;5027437;28;45378;-81
2022/03/05 01:20:04;;;;;;;;;45.75;35.00;;;;;11.78;64.84;101565.63;5032254;28;45386;-81
2022/03/05 01:22:30;;;;;;;;;39.75;33.00;;;;;11.76;64.94;101573.69;5027355;28;45400;-81
2022/03/05 01:24:55;;;;;;;;;42.75;34.50;;;;;11.76;64.83;101567.50;5026821;28;45456;-81
2022/03/05 01:27:22;;;;;;;;;37.50;32.00;;;;;11.56;64.84;101537.00;5022207;28;45471;-81
2022/03/05 01:29:47;;;;;;;;;42.50;33.75;;;;;11.52;64.77;101532.72;5032979;28;45330;-81
2022/03/05 01:32:13;;;;;;;;;45.25;35.50;;;;;11.54;64.93;101535.31;5032663;28;45401;-82
2022/03/05 01:34:38;;;;;;;;;42.50;34.50;;;;;11.66;65.34;101560.72;5023821;28;45316;-82
2022/03/05 01:37:03;;;;;;;;;43.50;33.50;;;;;11.31;65.08;101496.09;5018831;28;45248;-82
2022/03/05 01:39:29;;;;;;;;;41.50;34.00;;;;;11.60;65.12;101552.00;5018776;27;45579;-82
2022/03/05 01:41:55;;;;;;;;;44.50;33.00;;;;;11.61;65.26;101545.75;5031598;28;46112;-82
2022/03/05 01:44:21;;;;;;;;;46.00;38.00;;;;;11.71;65.43;101569.47;5023634;28;45490;-82
2022/03/05 01:46:46;;;;;;;;;45.50;35.75;;;;;11.62;65.32;101563.50;5022987;28;45489;-82
2022/03/05 01:49:13;;;;;;;;;43.25;34.50;;;;;11.28;65.13;101497.03;5029263;28;45498;-82
2022/03/05 01:51:39;;;;;;;;;44.00;36.50;;;;;11.49;65.45;101529.25;5027102;28;46076;-81
2022/03/05 01:54:06;;;;;;;;;43.00;34.50;;;;;11.40;65.51;101522.44;5024676;28;45518;-82
2022/03/05 01:56:32;;;;;;;;;45.50;35.75;;;;;11.47;65.55;101534.69;5023196;28;45413;-82
2022/03/05 01:58:58;;;;;;;;;43.00;35.50;;;;;11.40;65.49;101531.34;5024516;28;45781;-82
2022/03/05 02:01:26;;;;;;;;;42.75;35.50;;;;;11.71;65.36;101578.34;5030824;28;45637;-82
2022/03/05 02:03:52;;;;;;;;;45.50;35.50;;;;;11.71;65.41;101575.66;5023571;28;45454;-81
2022/03/05 02:06:18;;;;;;;;;46.25;36.00;;;;;11.71;65.17;101578.34;5025517;28;45489;-82
2022/03/05 02:08:44;;;;;;;;;39.00;34.00;;;;;11.64;65.21;101559.91;5020489;28;45554;-82
2022/03/05 02:11:10;;;;;;;;;44.25;34.25;;;;;11.47;65.48;101533.78;5031802;28;45968;-81
2022/03/05 02:13:36;;;;;;;;;32.25;28.25;;;;;11.74;65.08;101578.22;5031978;28;46081;-82
2022/03/05 02:16:02;;;;;;;;;42.25;33.75;;;;;11.73;65.58;101575.59;5014032;28;45463;-82
2022/03/05 02:18:27;;;;;;;;;46.50;35.50;;;;;11.73;65.54;101578.25;5027555;28;45378;-81
2022/03/05 02:20:53;;;;;;;;;42.25;33.50;;;;;11.55;65.50;101537.06;5020315;28;45329;-82
2022/03/05 02:23:19;;;;;;;;;42.00;33.00;;;;;11.73;65.41;101571.13;5018596;27;45367;-82
2022/03/05 02:25:54;;;;;;;;;40.00;34.75;;;;;11.72;65.05;101571.19;5028921;27;45647;-82
2022/03/05 02:28:21;;;;;;;;;39.75;32.25;;;;;11.72;65.48;101571.19;5026525;28;45381;-82
2022/03/05 02:30:47;;;;;;;;;40.25;32.00;;;;;11.70;65.37;101565.88;5025299;28;45384;-82
2022/03/05 02:33:13;;;;;;;;;38.67;33.33;;;;;11.63;65.54;101553.69;5033924;28;45417;-81
2022/03/05 02:35:38;;;;;;;;;45.00;33.50;;;;;11.66;65.27;101560.72;5032192;28;45470;-81
2022/03/05 02:38:04;;;;;;;;;41.00;32.00;;;;;11.67;65.50;101565.13;5026298;28;45553;-81
2022/03/05 02:40:29;;;;;;;;;42.75;35.00;;;;;11.58;65.49;101552.97;5017774;28;45416;-82
2022/03/05 02:42:55;;;;;;;;;46.00;35.75;;;;;11.63;65.42;101556.34;5027578;28;45458;-82
2022/03/05 02:45:20;;;;;;;;;43.75;34.00;;;;;11.49;65.84;101535.47;5023108;28;46184;-82
2022/03/05 02:47:45;;;;;;;;;48.75;36.00;;;;;11.48;65.21;101527.53;5030196;28;45459;-82
2022/03/05 02:50:11;;;;;;;;;47.00;34.50;;;;;11.45;65.49;101517.84;5030138;28;45446;-82
2022/03/05 02:52:39;;;;;;;;;35.00;30.00;;;;;11.54;65.43;101536.22;5017222;28;45337;-81
2022/03/05 02:55:05;;;;;;;;;42.75;34.00;;;;;11.49;65.61;101523.94;5035661;28;45314;-82
2022/03/05 02:57:30;;;;;;;;;39.67;33.00;;;;;11.57;65.42;101535.22;5035596;28;45241;-82
2022/03/05 02:59:56;;;;;;;;;42.00;35.33;;;;;11.52;65.24;101526.47;5035314;28;46017;-82
2022/03/05 03:02:21;;;;;;;;;42.25;35.25;;;;;11.52;65.47;101532.72;5032034;28;45553;-82
2022/03/05 03:04:46;;;;;;;;;44.25;36.00;;;;;11.47;65.45;101528.44;5021241;28;45634;-82
2022/03/05 03:07:12;;;;;;;;;45.00;34.33;;;;;11.36;65.50;101510.16;5016292;27;45516;-82
2022/03/05 03:09:37;;;;;;;;;46.25;34.50;;;;;11.55;65.69;101532.59;5025704;28;45376;-82
2022/03/05 03:12:03;;;;;;;;;42.50;33.25;;;;;11.44;65.47;101512.53;5021793;28;45363;-82
2022/03/05 03:14:28;;;;;;;;;42.33;32.67;;;;;11.55;65.90;101531.72;5031510;28;45485;-82
2022/03/05 03:16:54;;;;;;;;;40.00;29.00;;;;;11.55;65.76;101535.25;5022068;28;45594;-81
2022/03/05 03:19:19;;;;;;;;;39.75;33.00;;;;;11.32;65.83;101503.16;5021861;27;47989;-82
2022/03/05 03:21:45;;;;;;;;;40.25;33.00;;;;;11.23;66.23;101491.00;5037321;27;45587;-82
2022/03/05 03:24:10;;;;;;;;;43.75;34.50;;;;;11.27;66.29;101506.00;5017249;28;45459;-82
2022/03/05 03:26:36;;;;;;;;;45.33;35.67;;;;;11.25;66.26;101498.97;5034721;28;45368;-82
2022/03/05 03:29:01;;;;;;;;;43.75;36.50;;;;;11.37;66.30;101515.41;5034384;28;45678;-82
2022/03/05 03:31:27;;;;;;;;;43.33;35.00;;;;;11.41;66.43;101526.88;5034354;28;45487;-82
2022/03/05 03:33:52;;;;;;;;;42.33;35.00;;;;;11.16;66.42;101492.13;5035444;28;45556;-82
2022/03/05 03:36:18;;;;;;;;;42.25;34.50;;;;;11.45;66.34;101535.63;5032771;28;45517;-82
2022/03/05 03:38:43;;;;;;;;;38.25;30.00;;;;;11.28;66.38;101510.38;5019131;28;45441;-82
2022/03/05 03:41:08;;;;;;;;;45.00;37.00;;;;;11.11;66.47;101478.97;5026284;28;45397;-81
2022/03/05 03:43:34;;;;;;;;;49.25;39.25;;;;;11.46;66.59;101540.94;5017553;28;45411;-81
2022/03/05 03:45:59;;;;;;;;;40.00;33.00;;;;;11.33;66.57;101523.56;5030086;28;45686;-81
2022/03/05 03:48:25;;;;;;;;;47.00;38.00;;;;;11.41;66.56;101532.22;5017858;28;46155;-82
2022/03/05 03:50:50;;;;;;;;;45.50;35.00;;;;;11.38;66.61;101524.31;5029378;28;45480;-81
2022/03/05 03:53:16;;;;;;;;;37.33;32.67;;;;;11.45;66.47;101543.63;5023446;28;45385;-82
2022/03/05 03:55:41;;;;;;;;;34.67;31.00;;;;;11.24;66.10;101505.22;5026267;28;45468;-82
2022/03/05 03:58:07;;;;;;;;;38.67;32.00;;;;;11.29;66.34;101511.28;5059972;27;47449;-82
2022/03/05 04:00:33;;;;;;;;;40.00;32.75;;;;;11.47;66.01;101537.34;5017196;28;45411;-82
2022/03/05 04:02:59;;;;;;;;;41.50;32.75;;;;;11.32;66.19;101501.38;5028242;28;45368;-82
2022/03/05 04:05:24;;;;;;;;;35.00;31.33;;;;;10.98;65.90;101457.19;5024709;28;45408;-82
2022/03/05 04:10:33;;;;;;;;;39.00;31.33;;;;;11.34;66.04;101515.53;5017256;28;45414;-82
2022/03/05 04:12:58;;;;;;;;;33.00;28.67;;;;;11.26;65.67;101496.25;5034192;28;45663;-82
2022/03/05 04:15:24;;;;;;;;;41.00;30.00;;;;;11.23;65.87;101498.16;5012308;28;45561;-82
2022/03/05 04:17:50;;;;;;;;;37.00;31.00;;;;;11.46;65.91;101538.25;5025979;28;45487;-82
2022/03/05 04:20:16;;;;;;;;;34.33;28.67;;;;;11.28;65.48;101512.19;5025153;28;45412;-82
2022/03/05 04:22:41;;;;;;;;;34.00;29.00;;;;;11.33;65.39;101529.81;5012427;28;45552;-82
2022/03/05 04:25:07;;;;;;;;;35.67;29.67;;;;;11.29;65.12;101517.50;5028981;28;45322;-82
2022/03/05 04:27:33;;;;;;;;;34.00;31.00;;;;;11.24;65.06;101511.44;5023002;28;46371;-82
2022/03/05 04:29:58;;;;;;;;;30.67;27.33;;;;;11.26;64.77;101514.94;5022235;28;45443;-82
2022/03/05 04:32:23;;;;;;;;;32.33;27.00;;;;;11.14;65.10;101505.56;5014355;28;45321;-82
2022/03/05 04:34:49;;;;;;;;;29.33;24.67;;;;;11.36;65.07;101542.19;5014669;27;45600;-82
2022/03/05 04:37:14;;;;;;;;;36.67;30.00;;;;;11.32;64.58;101541.41;5014305;28;45246;-82
2022/03/05 04:39:40;;;;;;;;;29.33;26.00;;;;;11.02;64.81;101492.59;5012333;28;45864;-82
2022/03/05 04:42:05;;;;;;;;;37.00;28.00;;;;;11.26;64.85;101532.72;5014570;28;45434;-82
2022/03/05 04:44:30;;;;;;;;;35.33;30.00;;;;;11.30;64.92;101543.25;5022844;28;45307;-82
2022/03/05 04:46:56;;;;;;;;;27.00;25.33;;;;;11.34;64.50;101555.56;5033607;28;46247;-82
2022/03/05 04:49:22;;;;;;;;;31.33;25.67;;;;;11.32;64.45;101559.22;5019661;28;45662;-82
2022/03/05 04:51:47;;;;;;;;;26.33;20.33;;;;;11.11;64.53;101521.66;5025737;28;45411;-82
2022/03/05 04:54:13;;;;;;;;;32.00;22.67;;;;;11.14;64.40;101534.00;5033776;28;45403;-82
2022/03/05 04:56:38;;;;;;;;;23.00;21.67;;;;;11.12;64.52;101533.19;5014684;28;45385;-82
2022/03/05 04:59:04;;;;;;;;;29.33;23.67;;;;;10.97;64.65;101503.44;5013751;28;45504;-82
2022/03/05 05:01:29;;;;;;;;;30.67;26.00;;;;;11.06;64.36;101526.28;5025360;28;45321;-82
2022/03/05 05:03:55;;;;;;;;;29.33;25.33;;;;;10.88;64.60;101493.06;5016456;27;45433;-82
2022/03/05 05:06:20;;;;;;;;;32.33;26.00;;;;;10.97;64.95;101511.44;5015062;28;46161;-82
2022/03/05 05:08:45;;;;;;;;;19.33;17.33;;;;;11.21;64.81;101559.56;5022576;28;45396;-82
2022/03/05 05:11:11;;;;;;;;;30.33;26.00;;;;;11.20;64.81;101560.50;5027939;28;45308;-82
2022/03/05 05:13:38;;;;;;;;;29.00;23.00;;;;;10.93;64.60;101525.81;5022353;28;45773;-82
2022/03/05 05:16:04;;;;;;;;;31.67;26.67;;;;;11.04;64.92;101540.59;5017957;28;45405;-82
2022/03/05 05:18:29;;;;;;;;;31.00;24.33;;;;;10.74;64.57;101506.84;5024401;28;45451;-82
2022/03/05 05:20:55;;;;;;;;;28.00;24.33;;;;;11.14;64.74;101568.69;5011936;28;45421;-82
2022/03/05 05:23:20;;;;;;;;;27.33;27.00;;;;;10.90;64.67;101528.56;5013722;28;45360;-82
2022/03/05 05:25:45;;;;;;;;;25.33;23.00;;;;;11.12;64.79;101566.09;5020360;28;45415;-82
2022/03/05 05:28:11;;;;;;;;;29.67;28.00;;;;;11.02;65.34;101553.09;5026367;28;45373;-82
2022/03/05 05:30:36;;;;;;;;;30.33;27.67;;;;;10.96;65.16;101541.72;5016470;28;45523;-82
2022/03/05 05:33:02;;;;;;;;;23.33;20.67;;;;;11.11;65.11;101571.47;5033581;28;45579;-82
2022/03/05 05:35:27;;;;;;;;;30.00;23.67;;;;;11.08;65.13;101567.09;5030689;28;46181;-82
2022/03/05 05:37:52;;;;;;;;;32.33;28.33;;;;;11.09;65.21;101573.31;5026464;27;46040;-81
2022/03/05 05:40:18;;;;;;;;;29.67;27.00;;;;;11.05;65.36;101577.88;5009675;28;45568;-82
2022/03/05 05:42:43;;;;;;;;;31.67;27.33;;;;;10.85;65.57;101549.19;5018414;28;45360;-82
2022/03/05 05:45:09;;;;;;;;;28.67;25.67;;;;;11.03;65.54;101585.06;5038555;27;48241;-82
2022/03/05 05:47:35;;;;;;;;;31.00;28.00;;;;;10.75;65.78;101532.59;5026513;28;45535;-82
2022/03/05 05:50:00;;;;;;;;;29.67;26.67;;;;;10.72;65.94;101531.81;5021779;28;45487;-82
2022/03/05 05:52:25;;;;;;;;;27.67;23.67;;;;;11.01;65.76;101586.03;5024951;28;45517;-82
2022/03/05 05:54:51;;;;;;;;;26.00;23.67;;;;;11.02;65.99;101587.78;5026176;28;46362;-82
2022/03/05 05:57:16;;;;;;;;;35.67;28.33;;;;;10.91;65.93;101567.66;5026070;28;45501;-82
2022/03/05 05:59:41;;;;;;;;;30.00;28.00;;;;;10.90;66.05;101573.91;4999595;28;45629;-81
2022/03/05 06:02:07;;;;;;;;;35.67;28.67;;;;;10.89;65.90;101566.84;5006234;27;45353;-82
2022/03/05 06:04:32;;;;;;;;;33.00;31.00;;;;;10.88;66.20;101567.72;5029242;28;45412;-82
2022/03/05 06:06:58;;;;;;;;;36.67;31.67;;;;;10.67;65.95;101539.94;5057013;27;45463;-81
2022/03/05 06:09:23;;;;;;;;;34.75;31.50;;;;;10.85;66.30;101573.19;5102046;27;45408;-82
2022/03/05 06:11:49;;;;;;;;;31.25;29.50;;;;;10.87;66.20;101578.47;5119316;27;45819;-82
2022/03/05 06:14:15;;;;;;;;;32.75;30.00;;;;;10.90;66.45;101581.03;5120169;27;46071;-82
2022/03/05 06:16:42;;;;;;;;;36.50;30.00;;;;;10.91;66.39;101588.09;5117249;27;45375;-81
2022/03/05 06:19:08;;;;;;;;;37.25;31.00;;;;;10.74;66.20;101561.97;5119161;27;45293;-82
2022/03/05 06:21:37;;;;;;;;;40.00;31.25;;;;;10.71;66.16;101562.06;5120161;27;45510;-82
2022/03/05 06:24:10;;;;;;;;;32.33;29.33;;;;;10.60;66.50;101543.72;5100410;27;47396;-82
2022/03/05 06:29:40;;;;;;;;;36.00;30.50;;;;;10.81;66.37;101574.19;5108716;27;45430;-81
2022/03/05 06:32:35;;;;;;;;;30.00;27.25;;;;;10.88;66.29;101594.41;5118761;27;45530;-82
2022/03/05 06:35:05;;;;;;;;;33.25;27.75;;;;;10.92;66.35;101585.41;5120118;27;47543;-82
2022/03/05 06:40:45;;;;;;;;;33.00;29.00;;;;;10.97;66.53;101582.59;5099462;27;46453;-81
2022/03/05 06:43:45;;;;;;;;;31.25;29.50;;;;;10.83;66.56;101568.81;5115252;27;45503;-82
2022/03/05 06:46:38;;;;;;;;;33.00;30.00;;;;;10.81;66.10;101567.97;5105824;27;45570;-82
2022/03/05 06:49:19;;;;;;;;;37.25;30.00;;;;;11.03;66.43;101595.72;5100560;27;45502;-82
2022/03/05 06:51:45;;;;;;;;;33.25;29.00;;;;;11.04;66.38;101605.47;5118938;27;45406;-82
2022/03/05 06:57:47;;;;;;;;;35.67;31.00;;;;;11.04;66.29;101615.28;5107268;27;46102;-82
2022/03/05 07:00:47;;;;;;;;;38.33;28.00;;;;;11.07;66.08;101610.69;5089815;27;45431;-82
2022/03/05 07:03:40;;;;;;;;;35.00;30.33;;;;;11.08;65.61;101617.81;5100194;27;46720;-82
2022/03/05 07:06:13;;;;;;;;;32.67;27.33;;;;;11.11;65.92;101620.34;5113187;27;45725;-82
2022/03/05 07:09:01;;;;;;;;;30.33;28.67;;;;;11.10;65.67;101615.09;5029525;27;46542;-82
2022/03/05 07:11:47;;;;;;;;;29.67;28.00;;;;;11.10;65.49;101623.09;5027327;28;45533;-82
2022/03/05 07:14:58;;;;;;;;;33.67;30.33;;;;;11.06;65.39;101616.09;5018565;28;45555;-82
2022/03/05 07:17:26;;;;;;;;;29.33;28.67;;;;;11.08;65.41;101619.59;5019837;28;45517;-82
2022/03/05 07:20:18;;;;;;;;;37.00;31.50;;;;;11.08;65.30;101636.47;5021033;28;45473;-82
2022/03/05 07:22:54;;;;;;;;;37.50;30.75;;;;;11.04;65.07;101621.47;5033140;28;46565;-82
2022/03/05 07:25:25;;;;;;;;;37.50;30.75;;;;;11.08;65.40;101639.13;5029135;27;45490;-82
2022/03/05 07:28:27;;;;;;;;;35.50;32.25;;;;;10.96;65.54;101608.38;5032478;28;46452;-82
2022/03/05 07:31:02;;;;;;;;;42.00;32.50;;;;;10.92;65.20;101597.88;5023261;28;45436;-82
2022/03/05 07:34:08;;;;;;;;;38.75;31.50;;;;;11.14;64.94;101638.97;5028523;28;45437;-82
2022/03/05 07:36:36;;;;;;;;;36.67;31.00;;;;;10.92;64.71;101597.88;5034603;27;45673;-82
2022/03/05 07:39:07;;;;;;;;;37.75;31.75;;;;;11.16;65.00;101637.09;5034591;28;45449;-82
2022/03/05 07:41:55;;;;;;;;;36.25;32.00;;;;;11.18;64.91;101643.25;5028407;28;45961;-82
2022/03/05 07:44:23;;;;;;;;;38.75;32.75;;;;;11.06;64.80;101627.63;5062357;27;45399;-82
2022/03/05 07:46:51;;;;;;;;;36.00;28.33;;;;;11.20;64.57;101646.75;5021995;28;45429;-82
2022/03/05 07:49:40;;;;;;;;;34.00;30.33;;;;;11.19;64.54;101657.47;5025019;28;45456;-82
2022/03/05 07:55:21;;;;;;;;;40.50;34.75;;;;;11.02;64.41;101628.66;5018991;28;45421;-82
2022/03/05 07:57:57;;;;;;;;;42.00;32.75;;;;;11.16;64.62;101637.09;5025736;28;45304;-82
2022/03/05 08:00:25;;;;;;;;;42.00;30.00;;;;;11.25;64.67;101656.41;5023756;28;45462;-82
2022/03/05 08:02:51;;;;;;;;;34.50;30.00;;;;;11.04;64.26;101629.47;5004535;28;47842;-82
2022/03/05 08:05:48;;;;;;;;;35.50;32.00;;;;;11.24;64.36;101666.22;5024896;28;45567;-83
2022/03/05 08:08:28;;;;;;;;;36.00;31.00;;;;;11.26;64.17;101666.16;5013944;27;45501;-84
2022/03/05 08:10:56;;;;;;;;;40.00;33.00;;;;;11.18;64.19;101656.59;5020150;27;45438;-84
2022/03/05 08:13:24;;;;;;;;;39.00;31.75;;;;;11.11;64.08;101649.72;5020448;28;45418;-84
2022/03/05 08:15:50;;;;;;;;;33.25;30.00;;;;;11.23;64.58;101669.78;5030700;27;45585;-83
2022/03/05 08:18:16;;;;;;;;;39.00;32.00;;;;;11.04;64.24;101639.28;5027128;28;45538;-83
2022/03/05 08:21:01;;;;;;;;;40.00;33.00;;;;;11.07;64.25;101645.38;5023989;28;45301;-83
2022/03/05 08:23:31;;;;;;;;;41.25;33.50;;;;;11.04;64.04;101650.81;5033626;28;46436;-82
2022/03/05 08:26:10;;;;;;;;;36.67;32.67;;;;;10.99;64.22;101644.75;5027073;28;45569;-84
2022/03/05 08:28:38;;;;;;;;;38.50;31.25;;;;;11.01;64.40;101640.25;5021871;27;45610;-83
2022/03/05 08:31:12;;;;;;;;;28.67;26.33;;;;;11.24;64.33;101665.31;5019781;28;45398;-84
2022/03/05 08:33:41;;;;;;;;;39.50;33.50;;;;;11.29;64.48;101666.94;5030903;28;45413;-84
2022/03/05 08:36:42;;;;;;;;;45.25;35.50;;;;;11.32;64.34;101665.97;5028259;28;45373;-83
2022/03/05 08:39:19;;;;;;;;;42.75;36.00;;;;;11.34;64.00;101661.47;5014424;27;46078;-83
2022/03/05 08:41:46;;;;;;;;;36.75;32.25;;;;;10.69;63.87;101551.44;5013105;28;45405;-83
2022/03/05 08:44:46;;;;;;;;;37.50;32.50;;;;;11.19;63.99;101634.34;5025741;28;46225;-82
2022/03/05 08:47:32;;;;;;;;;43.00;35.00;;;;;11.31;63.78;101649.09;5032240;28;45397;-84
2022/03/05 08:50:13;;;;;;;;;40.50;32.50;;;;;11.43;63.86;101670.97;5021271;28;45561;-83
2022/03/05 08:52:39;;;;;;;;;44.00;35.00;;;;;11.22;63.75;101632.50;5015541;28;45570;-85
2022/03/05 08:55:11;;;;;;;;;47.75;35.75;;;;;11.04;63.67;101602.81;5014338;28;47169;-84
2022/03/05 08:57:37;;;;;;;;;45.25;34.00;;;;;11.50;63.82;101668.03;5031055;28;45347;-85
2022/03/05 09:00:08;;;;;;;;;41.00;32.00;;;;;11.56;63.09;101673.16;5014227;28;45506;-81
2022/03/05 09:02:34;;;;;;;;;44.25;35.50;;;;;11.60;62.93;101674.81;5021865;28;45512;-82
2022/03/05 09:04:59;;;;;;;;;35.67;33.00;;;;;11.49;62.90;101641.38;5024178;27;46410;-81
2022/03/05 09:07:25;;;;;;;;;44.00;36.25;;;;;11.78;62.93;101670.66;5032955;28;45455;-83
2022/03/05 09:09:50;;;;;;;;;41.25;33.25;;;;;11.83;62.58;101663.38;5031512;28;45469;-83
2022/03/05 09:12:16;;;;;;;;;40.33;33.67;;;;;11.97;62.12;101665.59;5034025;28;45539;-82
2022/03/05 09:14:41;;;;;;;;;34.67;25.67;;;;;12.05;62.26;101659.97;5034574;28;47715;-91
2022/03/05 09:17:07;;;;;;;;;38.00;33.00;;;;;12.16;61.87;101659.59;5019023;28;45812;-91
2022/03/05 09:19:32;;;;;;;;;39.00;32.75;;;;;11.82;61.44;101578.84;5018054;28;45578;-85
2022/03/05 09:21:58;;;;;;;;;38.75;31.00;;;;;12.42;60.99;101661.34;5027585;28;45511;-83
2022/03/05 09:24:23;;;;;;;;;44.75;34.50;;;;;12.63;60.48;101673.91;5030643;27;46179;-84
2022/03/05 09:26:48;;;;;;;;;45.00;35.67;;;;;12.46;60.16;101623.75;5063606;27;45391;-84
2022/03/05 09:29:20;;;;;;;;;40.00;36.67;;;;;12.89;60.02;101680.06;5014486;27;45520;-85
2022/03/05 09:31:45;;;;;;;;;42.00;35.00;;;;;12.48;59.30;101567.53;5021557;28;45535;-83
2022/03/05 09:34:11;;;;;;;;;34.33;32.00;;;;;12.68;58.83;101559.59;5020223;28;46078;-82
2022/03/05 09:36:36;;;;;;;;;42.00;37.00;;;;;12.95;58.09;101564.78;5023136;28;50636;-85
2022/03/05 09:39:03;;;;;;;;;38.33;31.67;;;;;12.99;58.05;101530.72;5013066;27;45544;-83
2022/03/05 09:41:28;;;;;;;;;44.33;34.67;;;;;14.04;56.89;101666.50;5019040;28;45387;-81
2022/03/05 09:43:54;;;;;;;;;39.33;32.67;;;;;13.99;56.32;101644.41;5024391;28;46184;-82
2022/03/05 09:46:22;;;;;;;;;44.00;35.67;;;;;13.79;55.81;101600.59;5026990;28;45507;-82
2022/03/05 09:48:50;;;;;;;;;35.00;31.33;;;;;14.38;55.62;101665.91;5018259;27;45444;-79
2022/03/05 09:51:15;;;;;;;;;40.33;33.67;;;;;14.56;55.42;101662.41;5023558;28;45446;-79
2022/03/05 09:53:41;;;;;;;;;42.33;33.00;;;;;14.81;54.80;101650.53;5021665;27;45493;-81
2022/03/05 09:56:06;;;;;;;;;30.67;26.33;;;;;14.73;53.94;101602.59;5024887;27;45570;-83
2022/03/05 09:58:32;;;;;;;;;44.00;35.33;;;;;14.47;53.78;101560.88;5026438;28;45408;-82
2022/03/05 10:00:57;;;;;;;;;45.67;36.00;;;;;15.11;53.59;101668.81;5031909;28;45224;-82
2022/03/05 10:03:23;;;;;;;;;39.00;33.00;;;;;14.83;53.39;101588.75;5021714;28;45398;-81
2022/03/05 10:05:49;;;;;;;;;35.33;31.33;;;;;15.51;52.77;101659.69;5022203;28;45633;-80
2022/03/05 10:08:15;;;;;;;;;38.33;35.00;;;;;15.66;52.02;101652.66;5024305;28;45662;-80
2022/03/05 10:11:23;;;;;;;;;35.33;32.33;;;;;15.93;51.97;101641.50;5005638;27;45468;-81
2022/03/05 10:13:49;;;;;;;;;40.67;32.67;;;;;16.75;50.14;101652.34;5025282;27;46634;-80
2022/03/05 10:16:32;;;;;;;;;40.67;33.33;;;;;17.12;49.24;101665.63;5026524;28;45495;-82
2022/03/05 10:19:14;;;;;;;;;40.33;34.67;;;;;16.96;48.16;101642.22;5029838;28;45478;-81
2022/03/05 10:21:55;;;;;;;;;41.00;34.00;;;;;17.95;47.06;101652.72;5029097;27;45659;-80
2022/03/05 10:24:35;;;;;;;;;43.00;34.67;;;;;17.70;46.62;101640.69;5026869;28;45468;-80
2022/03/05 10:27:01;;;;;;;;;45.00;35.00;;;;;17.42;46.20;101630.63;5020796;27;45520;-81
2022/03/05 10:29:34;;;;;;;;;40.33;34.67;;;;;18.51;45.75;101659.16;5026626;28;45516;-80
2022/03/05 10:32:08;;;;;;;;;48.67;37.00;;;;;20.03;43.13;101624.88;5013234;27;45569;-82
2022/03/05 10:34:45;;;;;;;;;44.67;33.67;;;;;21.32;41.20;101640.00;5001768;28;46611;-80
2022/03/05 10:37:11;;;;;;;;;45.00;32.67;;;;;22.20;38.51;101636.06;5021716;28;45427;-80
2022/03/05 10:39:37;;;;;;;;;35.00;30.00;;;;;23.34;36.36;101625.91;5029038;28;45412;-80
2022/03/05 10:42:23;;;;;;;;;39.67;34.00;;;;;23.90;35.94;101641.13;5024409;27;45696;-82
2022/03/05 10:45:08;;;;;;;;;43.33;33.33;;;;;25.22;34.29;101639.53;5023532;27;45764;-82
2022/03/05 10:47:43;;;;;;;;;38.67;34.33;;;;;25.21;33.15;101633.19;5027824;28;45397;-82
2022/03/05 10:50:26;;;;;;;;;38.67;33.67;;;;;25.41;33.07;101642.28;5032590;27;45359;-85
2022/03/05 10:53:00;;;;;;;;;30.33;28.00;;;;;27.01;30.75;101617.94;5015336;28;45369;-85
2022/03/05 10:55:28;;;;;;;;;34.67;29.67;;;;;28.13;28.90;101618.34;5028853;27;45436;-89
2022/03/05 10:58:06;;;;;;;;;37.67;31.00;;;;;29.15;27.50;101621.28;5025850;28;45412;-89
2022/03/05 11:00:32;;;;;;;;;36.67;32.67;;;;;29.73;26.05;101620.38;5004093;28;45630;-88
2022/03/05 11:03:02;;;;;;;;;38.67;33.67;;;;;29.76;26.30;101620.03;5027321;28;45602;-93
2022/03/05 11:05:27;;;;;;;;;33.33;31.33;;;;;29.48;26.13;101629.59;4999934;28;48422;-88
2022/03/05 11:07:54;;;;;;;;;39.00;33.33;;;;;29.34;25.61;101573.47;5020650;28;45447;-91
2022/03/05 11:10:23;;;;;;;;;38.67;33.67;;;;;28.59;27.11;101598.94;5011539;27;45489;-94
2022/03/05 11:12:56;;;;;;;;;31.00;30.00;;;;;27.75;26.81;101496.28;5013884;28;45257;-92
2022/03/05 11:15:23;;;;;;;;;37.00;33.33;;;;;27.88;27.31;101550.69;5093959;27;48370;-88
2022/03/05 11:17:49;;;;;;;;;32.67;31.00;;;;;26.98;28.08;101500.59;5023094;28;45521;-90
2022/03/05 11:20:15;;;;;;;;;37.33;32.00;;;;;26.31;28.66;101600.06;5014129;27;45507;-90
2022/03/05 11:22:44;;;;;;;;;40.00;33.33;;;;;25.34;29.42;101552.94;5027244;28;45565;-89
2022/03/05 11:25:15;;;;;;;;;33.33;29.33;;;;;25.05;30.79;101632.84;5019961;27;47051;-88
2022/03/05 11:27:58;;;;;;;;;41.33;33.67;;;;;24.32;31.71;101630.22;5017655;27;45625;-91
2022/03/05 11:30:24;;;;;;;;;33.33;29.33;;;;;23.65;32.57;101601.53;5027294;28;45443;-90
2022/03/05 11:32:49;;;;;;;;;34.67;32.67;;;;;23.56;31.96;101610.47;5015802;28;45423;-88